»·PEaware :: N196EC KSBP-KAPV

N196EC :: KSBP-KAPV

FLIGHT INFORMATION

Flight Status: Arrived
Operator: Privately registered:
United States
More flights under this callsign
Pilot: Adrián R. (20842)
Aircraft: CESSNA 172 SKYHAWK
(C172)
More flights by this aircraft type
Origin: KSBP San Luis Co Regl
United States
Destination: KAPV Apple Valley
United States
More flights between these airports :: More routes between these airports
Route: +RZS
File this flight plan on PilotEdge
Remarks: nffse
Altitude:
(Current/Filed)
0ft
Speed:
(Current/Filed)
0kts
Departed: 09-Nov-18 10:43 AM
Arrived: 09-Nov-18 12:10 PM
Distance/Time
Traveled:
174nm/1:26
Distance/Time
To Go:
Arrived

Flight Plot

Page will automatically refresh every two minutes.

Flight plan parsing failed; only flown route is shown


Map Options




Map Legend


Flown Route
Filed Route
Departure Airport
Arrival Airport
Navaid (VOR, NDB)
Fix

Horizontal Profiles

Position Reports

Time Latitude Longitude Heading Altitude Ground
Speed
09-Nov-18 10:45 34.574762 -119.962682 104 5548ft 87kts
09-Nov-18 10:46 34.567051 -119.934727 101 6050ft 87kts
09-Nov-18 10:47 34.560740 -119.906229 99 6547ft 87kts
09-Nov-18 10:48 34.553256 -119.878013 102 7045ft 88kts
09-Nov-18 10:49 34.544638 -119.849888 104 7473ft 93kts
09-Nov-18 10:50 34.533152 -119.816810 109 7504ft 114kts
09-Nov-18 10:51 34.519989 -119.783241 106 7488ft 110kts
09-Nov-18 10:52 34.507975 -119.749598 110 7534ft 109kts
09-Nov-18 10:53 34.495442 -119.716017 108 7554ft 110kts
09-Nov-18 10:54 34.483701 -119.681645 105 7539ft 110kts
09-Nov-18 10:55 34.474263 -119.646646 102 7520ft 109kts
09-Nov-18 10:56 34.463829 -119.614129 106 7510ft 110kts
09-Nov-18 10:57 34.453992 -119.580957 104 7495ft 110kts
09-Nov-18 10:58 34.445321 -119.545805 97 7500ft 108kts
09-Nov-18 10:59 34.439365 -119.510362 94 7522ft 106kts
09-Nov-18 11:00 34.435084 -119.481086 96 7545ft 106kts
09-Nov-18 11:01 34.428771 -119.440436 95 7560ft 105kts
09-Nov-18 11:02 34.423804 -119.406129 89 7565ft 102kts
09-Nov-18 11:03 34.421848 -119.372268 82 7563ft 98kts
09-Nov-18 11:04 34.430639 -119.342911 58 7546ft 94kts
09-Nov-18 11:05 34.430291 -119.323437 104 7534ft 102kts
09-Nov-18 11:06 34.418079 -119.286167 105 7532ft 98kts
09-Nov-18 11:07 34.410809 -119.260754 97 7521ft 98kts
09-Nov-18 11:08 34.403573 -119.224417 97 7524ft 97kts
09-Nov-18 11:09 34.399281 -119.198067 92 7522ft 96kts
09-Nov-18 11:10 34.394680 -119.165930 93 7525ft 97kts
09-Nov-18 11:11 34.389793 -119.133804 94 7523ft 97kts
09-Nov-18 11:12 34.384971 -119.102653 90 7523ft 96kts
09-Nov-18 11:13 34.381974 -119.073282 88 7522ft 96kts
09-Nov-18 11:14 34.379576 -119.040953 82 7520ft 96kts
09-Nov-18 11:15 34.380780 -119.008849 81 7529ft 96kts
09-Nov-18 11:16 34.382112 -118.976430 80 7527ft 96kts
09-Nov-18 11:17 34.383424 -118.943960 80 7549ft 96kts
09-Nov-18 11:18 34.384840 -118.911410 81 7534ft 95kts
09-Nov-18 11:19 34.386277 -118.879528 80 7543ft 95kts
09-Nov-18 11:20 34.387713 -118.847331 80 7543ft 95kts
09-Nov-18 11:21 34.389049 -118.816283 80 7535ft 95kts
09-Nov-18 11:22 34.392320 -118.784464 75 7542ft 95kts
09-Nov-18 11:23 34.396309 -118.752662 75 7545ft 96kts
09-Nov-18 11:24 34.400111 -118.720573 75 7534ft 96kts
09-Nov-18 11:25 34.403576 -118.688543 77 7534ft 96kts
09-Nov-18 11:26 34.406912 -118.656304 74 7539ft 97kts
09-Nov-18 11:27 34.412071 -118.624203 72 7536ft 97kts
09-Nov-18 11:28 34.417160 -118.591872 72 7536ft 98kts
09-Nov-18 11:29 34.422025 -118.559715 72 7537ft 98kts
09-Nov-18 11:30 34.426775 -118.527257 72 7545ft 99kts
09-Nov-18 11:31 34.431571 -118.494506 72 7556ft 99kts
09-Nov-18 11:32 34.436370 -118.461739 73 7567ft 99kts
09-Nov-18 11:33 34.441178 -118.428779 74 7580ft 99kts
09-Nov-18 11:34 34.446122 -118.395699 73 7594ft 99kts
09-Nov-18 11:35 34.451170 -118.362778 73 7607ft 99kts
09-Nov-18 11:36 34.455760 -118.333233 74 7621ft 100kts
09-Nov-18 11:37 34.460999 -118.300366 74 7637ft 100kts
09-Nov-18 11:38 34.466458 -118.267489 74 7654ft 99kts
09-Nov-18 11:39 34.472133 -118.234678 74 7632ft 100kts
09-Nov-18 11:40 34.478333 -118.200641 74 7497ft 101kts
09-Nov-18 11:41 34.481461 -118.167546 83 7508ft 98kts
09-Nov-18 11:42 34.483587 -118.134705 81 7517ft 97kts
09-Nov-18 11:43 34.486346 -118.102373 81 7525ft 96kts
09-Nov-18 11:44 34.489322 -118.070139 81 7530ft 96kts
09-Nov-18 11:45 34.492383 -118.037842 82 7521ft 96kts
09-Nov-18 11:46 34.495479 -118.005370 81 7512ft 97kts
09-Nov-18 11:47 34.498574 -117.972952 82 7504ft 97kts
09-Nov-18 11:48 34.500688 -117.940159 82 7497ft 97kts
09-Nov-18 11:49 34.503795 -117.907391 82 7491ft 97kts
09-Nov-18 11:50 34.507020 -117.874682 82 7485ft 98kts
09-Nov-18 11:51 34.510999 -117.842002 81 7481ft 98kts
09-Nov-18 11:52 34.514390 -117.809219 81 7490ft 98kts
09-Nov-18 11:53 34.517656 -117.776241 81 7500ft 98kts
09-Nov-18 11:54 34.520924 -117.742964 80 7509ft 100kts
09-Nov-18 11:55 34.524194 -117.709365 81 7518ft 101kts
09-Nov-18 11:56 34.524166 -117.674653 86 7525ft 103kts
09-Nov-18 11:57 34.523595 -117.639474 90 7531ft 105kts
09-Nov-18 11:58 34.520545 -117.603854 91 7538ft 107kts
09-Nov-18 11:59 34.516098 -117.567948 97 7540ft 108kts
09-Nov-18 12:00 34.509674 -117.532064 98 7540ft 109kts
09-Nov-18 12:01 34.503187 -117.496305 98 7559ft 108kts
09-Nov-18 12:02 34.496633 -117.460534 98 7559ft 109kts
09-Nov-18 12:03 34.489985 -117.424615 98 7544ft 110kts
09-Nov-18 12:04 34.481739 -117.384521 100 7045ft 129kts
09-Nov-18 12:05 34.473033 -117.341911 101 6542ft 131kts
09-Nov-18 12:06 34.463579 -117.301095 101 5992ft 124kts
09-Nov-18 12:07 34.460828 -117.260252 85 5391ft 122kts
09-Nov-18 12:08 34.465701 -117.221258 44 4840ft 117kts
09-Nov-18 12:09 34.494530 -117.211037 6 4344ft 108kts
09-Nov-18 12:10 34.523620 -117.203947 16 3918ft 107kts
09-Nov-18 12:11 34.550484 -117.195518 16 3449ft 83kts
09-Nov-18 12:12 34.566883 -117.189791 18 3181ft 52kts
09-Nov-18 12:13 34.578412 -117.185976 334 3066ft 19kts
09-Nov-18 12:14 34.577066 -117.187590 196 3066ft 12kts
09-Nov-18 12:15 34.573664 -117.189504 253 3066ft 0kts
09-Nov-18 12:16 34.573667 -117.189639 268 3066ft 0kts

Navigation Log

Ident Type
Flight plan parsing failed, navigation log unavailable